sensor_id;sensor_type;location;lat;lon;timestamp;temperature;humidity
7958;DHT22;4024;52.172;5.378;2023-05-16T00:02:15;12.70;99.90
7958;DHT22;4024;52.172;5.378;2023-05-16T00:04:41;12.70;99.90
7958;DHT22;4024;52.172;5.378;2023-05-16T00:07:07;12.70;99.90
7958;DHT22;4024;52.172;5.378;2023-05-16T00:09:32;12.70;99.90
7958;DHT22;4024;52.172;5.378;2023-05-16T00:11:58;12.70;99.90
7958;DHT22;4024;52.172;5.378;2023-05-16T00:14:24;12.70;99.90
7958;DHT22;4024;52.172;5.378;2023-05-16T00:16:52;12.60;99.90
7958;DHT22;4024;52.172;5.378;2023-05-16T00:19:18;12.60;99.90
7958;DHT22;4024;52.172;5.378;2023-05-16T00:21:44;12.60;99.90
7958;DHT22;4024;52.172;5.378;2023-05-16T00:24:10;12.60;99.90
7958;DHT22;4024;52.172;5.378;2023-05-16T00:26:36;12.50;99.90
7958;DHT22;4024;52.172;5.378;2023-05-16T00:29:01;12.50;99.90
7958;DHT22;4024;52.172;5.378;2023-05-16T00:31:27;12.40;99.90
7958;DHT22;4024;52.172;5.378;2023-05-16T00:33:52;12.40;99.90
7958;DHT22;4024;52.172;5.378;2023-05-16T00:36:19;12.30;99.90
7958;DHT22;4024;52.172;5.378;2023-05-16T00:38:45;12.30;99.90
7958;DHT22;4024;52.172;5.378;2023-05-16T00:41:11;12.20;99.90
7958;DHT22;4024;52.172;5.378;2023-05-16T00:43:37;12.20;99.90
7958;DHT22;4024;52.172;5.378;2023-05-16T00:46:04;12.20;99.90
7958;DHT22;4024;52.172;5.378;2023-05-16T00:48:29;12.10;99.90
7958;DHT22;4024;52.172;5.378;2023-05-16T00:50:55;12.10;99.90
7958;DHT22;4024;52.172;5.378;2023-05-16T00:53:22;12.00;99.90
7958;DHT22;4024;52.172;5.378;2023-05-16T00:55:48;12.00;99.90
7958;DHT22;4024;52.172;5.378;2023-05-16T00:58:14;12.00;99.90
7958;DHT22;4024;52.172;5.378;2023-05-16T01:00:41;11.90;99.90
7958;DHT22;4024;52.172;5.378;2023-05-16T01:03:08;11.90;99.90
7958;DHT22;4024;52.172;5.378;2023-05-16T01:05:33;11.80;99.90
7958;DHT22;4024;52.172;5.378;2023-05-16T01:07:59;11.80;99.90
7958;DHT22;4024;52.172;5.378;2023-05-16T01:10:38;11.80;99.90
7958;DHT22;4024;52.172;5.378;2023-05-16T01:13:11;11.80;99.90
7958;DHT22;4024;52.172;5.378;2023-05-16T01:16:17;11.80;99.90
7958;DHT22;4024;52.172;5.378;2023-05-16T01:21:16;11.70;99.90
7958;DHT22;4024;52.172;5.378;2023-05-16T01:24:22;11.60;99.90
7958;DHT22;4024;52.172;5.378;2023-05-16T01:26:49;11.60;99.90
7958;DHT22;4024;52.172;5.378;2023-05-16T01:29:16;11.60;99.90
7958;DHT22;4024;52.172;5.378;2023-05-16T01:31:42;11.60;99.90
7958;DHT22;4024;52.172;5.378;2023-05-16T01:34:08;11.50;99.90
7958;DHT22;4024;52.172;5.378;2023-05-16T01:36:59;11.50;99.90
7958;DHT22;4024;52.172;5.378;2023-05-16T01:39:43;11.40;99.90
7958;DHT22;4024;52.172;5.378;2023-05-16T01:42:20;11.40;99.90
7958;DHT22;4024;52.172;5.378;2023-05-16T01:44:58;11.50;99.90
7958;DHT22;4024;52.172;5.378;2023-05-16T01:47:26;11.40;99.90
7958;DHT22;4024;52.172;5.378;2023-05-16T01:50:15;11.40;99.90
7958;DHT22;4024;52.172;5.378;2023-05-16T01:53:06;11.30;99.90
7958;DHT22;4024;52.172;5.378;2023-05-16T01:55:51;11.30;99.90
7958;DHT22;4024;52.172;5.378;2023-05-16T01:58:20;11.30;99.90
7958;DHT22;4024;52.172;5.378;2023-05-16T02:00:46;11.30;99.90
7958;DHT22;4024;52.172;5.378;2023-05-16T02:03:11;11.20;99.90
7958;DHT22;4024;52.172;5.378;2023-05-16T02:05:37;11.20;99.90
7958;DHT22;4024;52.172;5.378;2023-05-16T02:08:03;11.20;99.90
7958;DHT22;4024;52.172;5.378;2023-05-16T02:10:29;11.10;99.90
7958;DHT22;4024;52.172;5.378;2023-05-16T02:12:54;11.10;99.90
7958;DHT22;4024;52.172;5.378;2023-05-16T02:15:20;11.10;99.90
7958;DHT22;4024;52.172;5.378;2023-05-16T02:17:47;11.10;99.90
7958;DHT22;4024;52.172;5.378;2023-05-16T02:20:12;11.10;99.90
7958;DHT22;4024;52.172;5.378;2023-05-16T02:22:38;11.00;99.90
7958;DHT22;4024;52.172;5.378;2023-05-16T02:25:05;11.00;99.90
7958;DHT22;4024;52.172;5.378;2023-05-16T02:27:31;11.00;99.90
7958;DHT22;4024;52.172;5.378;2023-05-16T02:29:57;11.00;99.90
7958;DHT22;4024;52.172;5.378;2023-05-16T02:32:22;11.00;99.90
7958;DHT22;4024;52.172;5.378;2023-05-16T02:34:48;11.00;99.90
7958;DHT22;4024;52.172;5.378;2023-05-16T02:37:13;11.00;99.90
7958;DHT22;4024;52.172;5.378;2023-05-16T02:39:39;11.00;99.90
7958;DHT22;4024;52.172;5.378;2023-05-16T02:42:06;11.00;99.90
7958;DHT22;4024;52.172;5.378;2023-05-16T02:44:32;10.90;99.90
7958;DHT22;4024;52.172;5.378;2023-05-16T02:46:57;11.00;99.90
7958;DHT22;4024;52.172;5.378;2023-05-16T02:49:23;10.90;99.90
7958;DHT22;4024;52.172;5.378;2023-05-16T02:51:48;10.90;99.90
7958;DHT22;4024;52.172;5.378;2023-05-16T02:54:14;10.90;99.90
7958;DHT22;4024;52.172;5.378;2023-05-16T02:56:40;10.90;99.90
7958;DHT22;4024;52.172;5.378;2023-05-16T02:59:06;10.90;99.90
7958;DHT22;4024;52.172;5.378;2023-05-16T03:01:32;10.90;99.90
7958;DHT22;4024;52.172;5.378;2023-05-16T03:03:57;10.80;99.90
7958;DHT22;4024;52.172;5.378;2023-05-16T03:06:23;10.80;99.90
7958;DHT22;4024;52.172;5.378;2023-05-16T03:08:49;10.80;99.90
7958;DHT22;4024;52.172;5.378;2023-05-16T03:11:16;10.80;99.90
7958;DHT22;4024;52.172;5.378;2023-05-16T03:13:44;10.80;99.90
7958;DHT22;4024;52.172;5.378;2023-05-16T03:16:10;10.80;99.90
7958;DHT22;4024;52.172;5.378;2023-05-16T03:18:36;10.80;99.90
7958;DHT22;4024;52.172;5.378;2023-05-16T03:21:01;10.80;99.90
7958;DHT22;4024;52.172;5.378;2023-05-16T03:23:27;10.80;99.90
7958;DHT22;4024;52.172;5.378;2023-05-16T03:25:53;10.70;99.90
7958;DHT22;4024;52.172;5.378;2023-05-16T03:28:18;10.70;99.90
7958;DHT22;4024;52.172;5.378;2023-05-16T03:30:44;10.70;99.90
7958;DHT22;4024;52.172;5.378;2023-05-16T03:33:10;10.70;99.90
7958;DHT22;4024;52.172;5.378;2023-05-16T03:35:36;10.70;99.90
7958;DHT22;4024;52.172;5.378;2023-05-16T03:38:02;10.70;99.90
7958;DHT22;4024;52.172;5.378;2023-05-16T03:40:28;10.60;99.90
7958;DHT22;4024;52.172;5.378;2023-05-16T03:42:54;10.60;99.90
7958;DHT22;4024;52.172;5.378;2023-05-16T03:45:19;10.60;99.90
7958;DHT22;4024;52.172;5.378;2023-05-16T03:47:45;10.60;99.90
7958;DHT22;4024;52.172;5.378;2023-05-16T03:50:12;10.60;99.90
7958;DHT22;4024;52.172;5.378;2023-05-16T03:52:38;10.60;99.90
7958;DHT22;4024;52.172;5.378;2023-05-16T03:55:04;10.60;99.90
7958;DHT22;4024;52.172;5.378;2023-05-16T03:57:30;10.60;99.90
7958;DHT22;4024;52.172;5.378;2023-05-16T03:59:57;10.60;99.90
7958;DHT22;4024;52.172;5.378;2023-05-16T04:02:22;10.60;99.90
7958;DHT22;4024;52.172;5.378;2023-05-16T04:04:48;10.60;99.90
7958;DHT22;4024;52.172;5.378;2023-05-16T04:07:13;10.60;99.90
7958;DHT22;4024;52.172;5.378;2023-05-16T04:09:39;10.60;99.90
7958;DHT22;4024;52.172;5.378;2023-05-16T04:12:05;10.60;99.90
7958;DHT22;4024;52.172;5.378;2023-05-16T04:14:31;10.60;99.90
7958;DHT22;4024;52.172;5.378;2023-05-16T04:16:56;10.60;99.90
7958;DHT22;4024;52.172;5.378;2023-05-16T04:19:22;10.60;99.90
7958;DHT22;4024;52.172;5.378;2023-05-16T04:21:48;10.60;99.90
7958;DHT22;4024;52.172;5.378;2023-05-16T04:24:13;10.60;99.90
7958;DHT22;4024;52.172;5.378;2023-05-16T04:26:39;10.70;99.90
7958;DHT22;4024;52.172;5.378;2023-05-16T04:29:04;10.70;99.90
7958;DHT22;4024;52.172;5.378;2023-05-16T04:31:30;10.70;99.90
7958;DHT22;4024;52.172;5.378;2023-05-16T04:33:56;10.70;99.90
7958;DHT22;4024;52.172;5.378;2023-05-16T04:36:22;10.70;99.90
7958;DHT22;4024;52.172;5.378;2023-05-16T04:38:48;10.70;99.90
7958;DHT22;4024;52.172;5.378;2023-05-16T04:41:14;10.70;99.90
7958;DHT22;4024;52.172;5.378;2023-05-16T04:43:40;10.70;99.90
7958;DHT22;4024;52.172;5.378;2023-05-16T04:46:06;10.70;99.90
7958;DHT22;4024;52.172;5.378;2023-05-16T04:48:32;10.80;99.90
7958;DHT22;4024;52.172;5.378;2023-05-16T04:50:58;10.80;99.90
7958;DHT22;4024;52.172;5.378;2023-05-16T04:53:24;10.80;99.90
7958;DHT22;4024;52.172;5.378;2023-05-16T04:55:50;10.80;99.90
7958;DHT22;4024;52.172;5.378;2023-05-16T04:58:16;10.80;99.90
7958;DHT22;4024;52.172;5.378;2023-05-16T05:00:41;10.80;99.90
7958;DHT22;4024;52.172;5.378;2023-05-16T05:03:07;10.90;99.90
7958;DHT22;4024;52.172;5.378;2023-05-16T05:05:33;10.90;99.90
7958;DHT22;4024;52.172;5.378;2023-05-16T05:07:58;10.90;99.90
7958;DHT22;4024;52.172;5.378;2023-05-16T05:10:25;11.00;99.90
7958;DHT22;4024;52.172;5.378;2023-05-16T05:12:52;11.20;99.90
7958;DHT22;4024;52.172;5.378;2023-05-16T05:15:18;11.50;99.90
7958;DHT22;4024;52.172;5.378;2023-05-16T05:17:44;11.90;99.90
7958;DHT22;4024;52.172;5.378;2023-05-16T05:20:10;12.40;99.90
7958;DHT22;4024;52.172;5.378;2023-05-16T05:22:36;12.90;99.90
7958;DHT22;4024;52.172;5.378;2023-05-16T05:25:01;13.40;99.90
7958;DHT22;4024;52.172;5.378;2023-05-16T05:27:27;13.80;99.90
7958;DHT22;4024;52.172;5.378;2023-05-16T05:29:53;14.20;99.90
7958;DHT22;4024;52.172;5.378;2023-05-16T05:32:18;14.50;99.90
7958;DHT22;4024;52.172;5.378;2023-05-16T05:34:44;14.60;99.90
7958;DHT22;4024;52.172;5.378;2023-05-16T05:37:09;14.70;99.90
7958;DHT22;4024;52.172;5.378;2023-05-16T05:39:35;14.80;99.90
7958;DHT22;4024;52.172;5.378;2023-05-16T05:42:01;15.00;99.90
7958;DHT22;4024;52.172;5.378;2023-05-16T05:44:28;15.10;99.90
7958;DHT22;4024;52.172;5.378;2023-05-16T05:46:54;15.30;99.90
7958;DHT22;4024;52.172;5.378;2023-05-16T05:49:25;15.40;99.90
7958;DHT22;4024;52.172;5.378;2023-05-16T05:51:51;15.60;99.90
7958;DHT22;4024;52.172;5.378;2023-05-16T05:54:19;15.80;99.90
7958;DHT22;4024;52.172;5.378;2023-05-16T05:56:45;16.00;99.90
7958;DHT22;4024;52.172;5.378;2023-05-16T05:59:11;16.40;99.90
7958;DHT22;4024;52.172;5.378;2023-05-16T06:01:36;16.60;99.90
7958;DHT22;4024;52.172;5.378;2023-05-16T06:04:02;17.00;99.90
7958;DHT22;4024;52.172;5.378;2023-05-16T06:06:28;17.30;99.90
7958;DHT22;4024;52.172;5.378;2023-05-16T06:08:54;17.60;99.90
7958;DHT22;4024;52.172;5.378;2023-05-16T06:11:20;17.90;99.90
7958;DHT22;4024;52.172;5.378;2023-05-16T06:13:46;18.10;99.90
7958;DHT22;4024;52.172;5.378;2023-05-16T06:16:12;18.50;99.90
7958;DHT22;4024;52.172;5.378;2023-05-16T06:18:37;18.80;99.90
7958;DHT22;4024;52.172;5.378;2023-05-16T06:21:04;19.00;99.90
7958;DHT22;4024;52.172;5.378;2023-05-16T06:23:30;19.20;99.90
7958;DHT22;4024;52.172;5.378;2023-05-16T06:25:56;19.30;99.90
7958;DHT22;4024;52.172;5.378;2023-05-16T06:28:21;19.30;99.90
7958;DHT22;4024;52.172;5.378;2023-05-16T06:30:48;19.40;99.90
7958;DHT22;4024;52.172;5.378;2023-05-16T06:33:16;19.40;99.90
7958;DHT22;4024;52.172;5.378;2023-05-16T06:35:42;19.30;99.90
7958;DHT22;4024;52.172;5.378;2023-05-16T06:38:08;19.00;99.90
7958;DHT22;4024;52.172;5.378;2023-05-16T06:40:33;18.90;99.90
7958;DHT22;4024;52.172;5.378;2023-05-16T06:42:59;18.70;99.90
7958;DHT22;4024;52.172;5.378;2023-05-16T06:45:25;18.40;99.90
7958;DHT22;4024;52.172;5.378;2023-05-16T06:47:50;18.20;99.90
7958;DHT22;4024;52.172;5.378;2023-05-16T06:50:16;17.90;99.90
7958;DHT22;4024;52.172;5.378;2023-05-16T06:52:41;17.70;99.90
7958;DHT22;4024;52.172;5.378;2023-05-16T06:55:08;17.40;99.90
7958;DHT22;4024;52.172;5.378;2023-05-16T06:57:33;17.20;99.90
7958;DHT22;4024;52.172;5.378;2023-05-16T06:59:59;17.00;99.90
7958;DHT22;4024;52.172;5.378;2023-05-16T07:02:24;16.80;99.90
7958;DHT22;4024;52.172;5.378;2023-05-16T07:04:50;16.60;99.90
7958;DHT22;4024;52.172;5.378;2023-05-16T07:07:16;16.50;99.90
7958;DHT22;4024;52.172;5.378;2023-05-16T07:09:42;16.30;99.90
7958;DHT22;4024;52.172;5.378;2023-05-16T07:12:08;16.10;99.90
7958;DHT22;4024;52.172;5.378;2023-05-16T07:14:34;16.10;99.90
7958;DHT22;4024;52.172;5.378;2023-05-16T07:17:00;16.00;99.90
7958;DHT22;4024;52.172;5.378;2023-05-16T07:19:25;15.90;99.90
7958;DHT22;4024;52.172;5.378;2023-05-16T07:21:51;15.90;99.90
7958;DHT22;4024;52.172;5.378;2023-05-16T07:24:16;15.80;99.90
7958;DHT22;4024;52.172;5.378;2023-05-16T07:26:42;15.80;99.90
7958;DHT22;4024;52.172;5.378;2023-05-16T07:29:08;15.80;99.90
7958;DHT22;4024;52.172;5.378;2023-05-16T07:31:33;15.80;99.90
7958;DHT22;4024;52.172;5.378;2023-05-16T07:33:59;15.80;99.90
7958;DHT22;4024;52.172;5.378;2023-05-16T07:36:25;15.90;99.90
7958;DHT22;4024;52.172;5.378;2023-05-16T07:38:50;15.80;99.90
7958;DHT22;4024;52.172;5.378;2023-05-16T07:41:16;15.80;99.90
7958;DHT22;4024;52.172;5.378;2023-05-16T07:43:41;15.70;99.90
7958;DHT22;4024;52.172;5.378;2023-05-16T07:46:07;15.70;99.90
7958;DHT22;4024;52.172;5.378;2023-05-16T07:48:33;15.60;99.90
7958;DHT22;4024;52.172;5.378;2023-05-16T07:50:58;15.60;99.90
7958;DHT22;4024;52.172;5.378;2023-05-16T07:53:24;15.60;99.90
7958;DHT22;4024;52.172;5.378;2023-05-16T07:55:50;15.50;99.90
7958;DHT22;4024;52.172;5.378;2023-05-16T07:58:15;15.50;99.90
7958;DHT22;4024;52.172;5.378;2023-05-16T08:00:41;15.40;99.90
7958;DHT22;4024;52.172;5.378;2023-05-16T08:03:07;15.30;99.90
7958;DHT22;4024;52.172;5.378;2023-05-16T08:05:32;15.10;99.90
7958;DHT22;4024;52.172;5.378;2023-05-16T08:07:58;15.00;99.90
7958;DHT22;4024;52.172;5.378;2023-05-16T08:10:23;14.90;99.90
7958;DHT22;4024;52.172;5.378;2023-05-16T08:12:49;14.80;99.90
7958;DHT22;4024;52.172;5.378;2023-05-16T08:15:16;14.70;99.90
7958;DHT22;4024;52.172;5.378;2023-05-16T08:17:41;14.70;99.90
7958;DHT22;4024;52.172;5.378;2023-05-16T08:20:07;14.70;99.90
7958;DHT22;4024;52.172;5.378;2023-05-16T08:22:33;14.70;99.90
7958;DHT22;4024;52.172;5.378;2023-05-16T08:24:59;14.60;99.90
7958;DHT22;4024;52.172;5.378;2023-05-16T08:27:26;14.80;99.90
7958;DHT22;4024;52.172;5.378;2023-05-16T08:29:52;14.80;99.90
7958;DHT22;4024;52.172;5.378;2023-05-16T08:32:17;14.90;99.90
7958;DHT22;4024;52.172;5.378;2023-05-16T08:34:43;15.00;99.90
7958;DHT22;4024;52.172;5.378;2023-05-16T08:37:09;15.10;99.90
7958;DHT22;4024;52.172;5.378;2023-05-16T08:39:35;15.20;99.90
7958;DHT22;4024;52.172;5.378;2023-05-16T08:42:02;15.20;99.90
7958;DHT22;4024;52.172;5.378;2023-05-16T08:44:29;15.20;99.90
7958;DHT22;4024;52.172;5.378;2023-05-16T08:46:56;15.20;99.90
7958;DHT22;4024;52.172;5.378;2023-05-16T08:49:22;15.30;99.90
7958;DHT22;4024;52.172;5.378;2023-05-16T08:51:51;15.30;99.90
7958;DHT22;4024;52.172;5.378;2023-05-16T08:54:20;15.30;99.90
7958;DHT22;4024;52.172;5.378;2023-05-16T08:56:47;15.50;99.90
7958;DHT22;4024;52.172;5.378;2023-05-16T08:59:15;15.50;99.90
7958;DHT22;4024;52.172;5.378;2023-05-16T09:01:41;15.60;99.90
7958;DHT22;4024;52.172;5.378;2023-05-16T09:04:08;15.70;99.90
7958;DHT22;4024;52.172;5.378;2023-05-16T09:06:34;15.80;99.90
7958;DHT22;4024;52.172;5.378;2023-05-16T09:09:00;15.90;99.90
7958;DHT22;4024;52.172;5.378;2023-05-16T09:11:27;16.00;99.90
7958;DHT22;4024;52.172;5.378;2023-05-16T09:13:53;16.10;99.90
7958;DHT22;4024;52.172;5.378;2023-05-16T09:16:19;16.10;99.90
7958;DHT22;4024;52.172;5.378;2023-05-16T09:18:55;16.20;99.90
7958;DHT22;4024;52.172;5.378;2023-05-16T09:21:25;16.30;99.90
7958;DHT22;4024;52.172;5.378;2023-05-16T09:23:51;16.40;99.90
7958;DHT22;4024;52.172;5.378;2023-05-16T09:26:17;16.50;99.90
7958;DHT22;4024;52.172;5.378;2023-05-16T09:28:43;16.70;99.90
7958;DHT22;4024;52.172;5.378;2023-05-16T09:31:20;16.90;99.90
7958;DHT22;4024;52.172;5.378;2023-05-16T09:33:46;17.00;99.90
7958;DHT22;4024;52.172;5.378;2023-05-16T09:36:12;17.20;99.90
7958;DHT22;4024;52.172;5.378;2023-05-16T09:38:39;17.40;99.90
7958;DHT22;4024;52.172;5.378;2023-05-16T09:41:05;17.60;99.90
7958;DHT22;4024;52.172;5.378;2023-05-16T09:43:31;17.70;99.90
7958;DHT22;4024;52.172;5.378;2023-05-16T09:45:58;17.70;99.90
7958;DHT22;4024;52.172;5.378;2023-05-16T09:48:24;17.70;99.90
7958;DHT22;4024;52.172;5.378;2023-05-16T09:50:53;17.70;99.90
7958;DHT22;4024;52.172;5.378;2023-05-16T09:53:32;17.80;99.90
7958;DHT22;4024;52.172;5.378;2023-05-16T09:56:06;17.90;99.90
7958;DHT22;4024;52.172;5.378;2023-05-16T09:58:34;18.00;99.90
7958;DHT22;4024;52.172;5.378;2023-05-16T10:01:00;18.00;99.90
7958;DHT22;4024;52.172;5.378;2023-05-16T10:03:27;17.90;99.90
7958;DHT22;4024;52.172;5.378;2023-05-16T10:05:53;18.20;99.90
7958;DHT22;4024;52.172;5.378;2023-05-16T10:08:24;18.00;99.90
7958;DHT22;4024;52.172;5.378;2023-05-16T10:10:52;18.00;99.90
7958;DHT22;4024;52.172;5.378;2023-05-16T10:13:32;18.10;99.90
7958;DHT22;4024;52.172;5.378;2023-05-16T10:16:00;18.10;99.90
7958;DHT22;4024;52.172;5.378;2023-05-16T10:18:30;18.10;99.90
7958;DHT22;4024;52.172;5.378;2023-05-16T10:20:59;18.20;99.90
7958;DHT22;4024;52.172;5.378;2023-05-16T10:23:27;18.20;99.90
7958;DHT22;4024;52.172;5.378;2023-05-16T10:25:54;18.20;99.90
7958;DHT22;4024;52.172;5.378;2023-05-16T10:28:22;18.10;99.90
7958;DHT22;4024;52.172;5.378;2023-05-16T10:30:50;18.10;99.90
7958;DHT22;4024;52.172;5.378;2023-05-16T10:33:17;18.00;99.90
7958;DHT22;4024;52.172;5.378;2023-05-16T10:35:44;17.90;99.90
7958;DHT22;4024;52.172;5.378;2023-05-16T10:38:17;17.90;99.90
7958;DHT22;4024;52.172;5.378;2023-05-16T10:40:44;17.70;99.90
7958;DHT22;4024;52.172;5.378;2023-05-16T10:43:28;17.70;99.90
7958;DHT22;4024;52.172;5.378;2023-05-16T10:46:09;17.60;99.90
7958;DHT22;4024;52.172;5.378;2023-05-16T10:48:36;17.60;99.90
7958;DHT22;4024;52.172;5.378;2023-05-16T10:51:31;17.60;99.90
7958;DHT22;4024;52.172;5.378;2023-05-16T10:53:53;17.50;99.90
7958;DHT22;4024;52.172;5.378;2023-05-16T10:56:25;17.50;99.90
7958;DHT22;4024;52.172;5.378;2023-05-16T10:58:53;17.50;99.90
7958;DHT22;4024;52.172;5.378;2023-05-16T11:06:23;17.50;99.90
7958;DHT22;4024;52.172;5.378;2023-05-16T11:12:12;17.60;99.90
7958;DHT22;4024;52.172;5.378;2023-05-16T11:20:00;17.70;99.90
7958;DHT22;4024;52.172;5.378;2023-05-16T11:22:28;17.80;99.90
7958;DHT22;4024;52.172;5.378;2023-05-16T11:25:04;17.80;99.90
7958;DHT22;4024;52.172;5.378;2023-05-16T11:27:34;17.70;99.90
7958;DHT22;4024;52.172;5.378;2023-05-16T11:32:36;17.80;99.90
7958;DHT22;4024;52.172;5.378;2023-05-16T11:35:03;17.80;99.90
7958;DHT22;4024;52.172;5.378;2023-05-16T11:37:29;17.70;99.90
7958;DHT22;4024;52.172;5.378;2023-05-16T11:39:59;17.70;99.90
7958;DHT22;4024;52.172;5.378;2023-05-16T11:42:33;17.70;99.90
7958;DHT22;4024;52.172;5.378;2023-05-16T11:45:10;17.60;99.90
7958;DHT22;4024;52.172;5.378;2023-05-16T11:47:40;17.60;99.90
7958;DHT22;4024;52.172;5.378;2023-05-16T11:50:20;17.50;99.90
7958;DHT22;4024;52.172;5.378;2023-05-16T11:52:51;17.40;99.90
7958;DHT22;4024;52.172;5.378;2023-05-16T11:55:20;17.40;99.90
7958;DHT22;4024;52.172;5.378;2023-05-16T11:57:46;17.30;99.90
7958;DHT22;4024;52.172;5.378;2023-05-16T12:00:16;17.20;99.90
7958;DHT22;4024;52.172;5.378;2023-05-16T12:02:46;17.20;99.90
7958;DHT22;4024;52.172;5.378;2023-05-16T12:05:13;17.10;99.90
7958;DHT22;4024;52.172;5.378;2023-05-16T12:07:39;17.10;99.90
7958;DHT22;4024;52.172;5.378;2023-05-16T12:10:07;17.10;99.90
7958;DHT22;4024;52.172;5.378;2023-05-16T12:12:33;17.10;99.90
7958;DHT22;4024;52.172;5.378;2023-05-16T12:15:01;17.10;99.90
7958;DHT22;4024;52.172;5.378;2023-05-16T12:17:28;17.20;99.90
7958;DHT22;4024;52.172;5.378;2023-05-16T12:19:54;17.20;99.90
7958;DHT22;4024;52.172;5.378;2023-05-16T12:22:20;17.20;99.90
7958;DHT22;4024;52.172;5.378;2023-05-16T12:24:45;17.40;99.90
7958;DHT22;4024;52.172;5.378;2023-05-16T12:27:11;17.30;99.90
7958;DHT22;4024;52.172;5.378;2023-05-16T12:29:37;17.30;99.90
7958;DHT22;4024;52.172;5.378;2023-05-16T12:32:03;17.40;99.90
7958;DHT22;4024;52.172;5.378;2023-05-16T12:34:32;17.40;99.90
7958;DHT22;4024;52.172;5.378;2023-05-16T12:36:58;17.40;99.90
7958;DHT22;4024;52.172;5.378;2023-05-16T12:39:23;17.40;99.90
7958;DHT22;4024;52.172;5.378;2023-05-16T12:41:49;17.40;99.90
7958;DHT22;4024;52.172;5.378;2023-05-16T12:44:17;17.40;99.90
7958;DHT22;4024;52.172;5.378;2023-05-16T12:46:45;17.50;99.90
7958;DHT22;4024;52.172;5.378;2023-05-16T12:49:11;17.50;99.90
7958;DHT22;4024;52.172;5.378;2023-05-16T12:51:38;17.50;99.90
7958;DHT22;4024;52.172;5.378;2023-05-16T12:54:10;17.50;99.90
7958;DHT22;4024;52.172;5.378;2023-05-16T12:56:40;17.50;99.90
7958;DHT22;4024;52.172;5.378;2023-05-16T12:59:06;17.50;99.90
7958;DHT22;4024;52.172;5.378;2023-05-16T13:01:33;17.50;99.90
7958;DHT22;4024;52.172;5.378;2023-05-16T13:03:59;17.40;99.90
7958;DHT22;4024;52.172;5.378;2023-05-16T13:06:25;17.40;99.90
7958;DHT22;4024;52.172;5.378;2023-05-16T13:08:51;17.40;99.90
7958;DHT22;4024;52.172;5.378;2023-05-16T13:11:16;17.30;99.90
7958;DHT22;4024;52.172;5.378;2023-05-16T13:13:43;17.30;99.90
7958;DHT22;4024;52.172;5.378;2023-05-16T13:16:09;17.30;99.90
7958;DHT22;4024;52.172;5.378;2023-05-16T13:18:35;17.30;99.90
7958;DHT22;4024;52.172;5.378;2023-05-16T13:21:01;17.30;99.90
7958;DHT22;4024;52.172;5.378;2023-05-16T13:23:29;17.40;99.90
7958;DHT22;4024;52.172;5.378;2023-05-16T13:25:54;17.40;99.90
7958;DHT22;4024;52.172;5.378;2023-05-16T13:28:20;17.30;99.90
7958;DHT22;4024;52.172;5.378;2023-05-16T13:30:46;17.20;99.90
7958;DHT22;4024;52.172;5.378;2023-05-16T13:33:11;17.10;99.90
7958;DHT22;4024;52.172;5.378;2023-05-16T13:35:37;17.10;99.90
7958;DHT22;4024;52.172;5.378;2023-05-16T13:38:03;17.10;99.90
7958;DHT22;4024;52.172;5.378;2023-05-16T13:40:29;17.00;99.90
7958;DHT22;4024;52.172;5.378;2023-05-16T13:42:55;17.00;99.90
7958;DHT22;4024;52.172;5.378;2023-05-16T13:45:21;17.00;99.90
7958;DHT22;4024;52.172;5.378;2023-05-16T13:47:47;16.90;99.90
7958;DHT22;4024;52.172;5.378;2023-05-16T13:50:14;17.00;99.90
7958;DHT22;4024;52.172;5.378;2023-05-16T13:52:39;17.00;99.90
7958;DHT22;4024;52.172;5.378;2023-05-16T13:55:06;17.00;99.90
7958;DHT22;4024;52.172;5.378;2023-05-16T13:57:32;16.90;99.90
7958;DHT22;4024;52.172;5.378;2023-05-16T13:59:58;16.90;99.90
7958;DHT22;4024;52.172;5.378;2023-05-16T14:02:24;16.90;99.90
7958;DHT22;4024;52.172;5.378;2023-05-16T14:04:51;16.80;99.90
7958;DHT22;4024;52.172;5.378;2023-05-16T14:07:17;16.80;99.90
7958;DHT22;4024;52.172;5.378;2023-05-16T14:09:42;16.70;99.90
7958;DHT22;4024;52.172;5.378;2023-05-16T14:12:09;16.70;99.90
7958;DHT22;4024;52.172;5.378;2023-05-16T14:14:35;16.70;99.90
7958;DHT22;4024;52.172;5.378;2023-05-16T14:17:01;16.70;99.90
7958;DHT22;4024;52.172;5.378;2023-05-16T14:19:28;16.70;99.90
7958;DHT22;4024;52.172;5.378;2023-05-16T14:21:54;16.70;99.90
7958;DHT22;4024;52.172;5.378;2023-05-16T14:24:20;16.70;99.90
7958;DHT22;4024;52.172;5.378;2023-05-16T14:26:45;16.70;99.90
7958;DHT22;4024;52.172;5.378;2023-05-16T14:29:11;16.70;99.90
7958;DHT22;4024;52.172;5.378;2023-05-16T14:31:38;16.70;99.90
7958;DHT22;4024;52.172;5.378;2023-05-16T14:34:03;16.80;99.90
7958;DHT22;4024;52.172;5.378;2023-05-16T14:36:29;16.80;99.90
7958;DHT22;4024;52.172;5.378;2023-05-16T14:38:56;16.80;99.90
7958;DHT22;4024;52.172;5.378;2023-05-16T14:41:22;16.90;99.90
7958;DHT22;4024;52.172;5.378;2023-05-16T14:43:48;16.70;99.90
7958;DHT22;4024;52.172;5.378;2023-05-16T14:46:13;16.90;99.90
7958;DHT22;4024;52.172;5.378;2023-05-16T14:48:39;16.80;99.90
7958;DHT22;4024;52.172;5.378;2023-05-16T14:51:05;16.70;99.90
7958;DHT22;4024;52.172;5.378;2023-05-16T14:53:31;16.70;99.90
7958;DHT22;4024;52.172;5.378;2023-05-16T14:55:57;16.70;99.90
7958;DHT22;4024;52.172;5.378;2023-05-16T14:58:23;16.70;99.90
7958;DHT22;4024;52.172;5.378;2023-05-16T15:00:49;16.70;99.90
7958;DHT22;4024;52.172;5.378;2023-05-16T15:03:16;16.70;99.90
7958;DHT22;4024;52.172;5.378;2023-05-16T15:05:42;16.80;99.90
7958;DHT22;4024;52.172;5.378;2023-05-16T15:08:08;16.80;99.90
7958;DHT22;4024;52.172;5.378;2023-05-16T15:10:34;16.80;99.90
7958;DHT22;4024;52.172;5.378;2023-05-16T15:12:59;16.90;99.90
7958;DHT22;4024;52.172;5.378;2023-05-16T15:15:25;16.90;99.90
7958;DHT22;4024;52.172;5.378;2023-05-16T15:17:51;16.90;99.90
7958;DHT22;4024;52.172;5.378;2023-05-16T15:20:18;17.00;99.90
7958;DHT22;4024;52.172;5.378;2023-05-16T15:22:43;17.00;99.90
7958;DHT22;4024;52.172;5.378;2023-05-16T15:25:10;17.10;99.90
7958;DHT22;4024;52.172;5.378;2023-05-16T15:27:35;17.10;99.90
7958;DHT22;4024;52.172;5.378;2023-05-16T15:30:01;17.10;99.90
7958;DHT22;4024;52.172;5.378;2023-05-16T15:32:27;17.10;99.90
7958;DHT22;4024;52.172;5.378;2023-05-16T15:34:53;17.10;99.90
7958;DHT22;4024;52.172;5.378;2023-05-16T15:37:19;17.10;99.90
7958;DHT22;4024;52.172;5.378;2023-05-16T15:39:45;17.10;99.90
7958;DHT22;4024;52.172;5.378;2023-05-16T15:42:10;17.10;99.90
7958;DHT22;4024;52.172;5.378;2023-05-16T15:57:29;17.00;99.90
7958;DHT22;4024;52.172;5.378;2023-05-16T15:59:54;16.90;99.90
7958;DHT22;4024;52.172;5.378;2023-05-16T16:02:20;16.90;99.90
7958;DHT22;4024;52.172;5.378;2023-05-16T16:04:46;16.90;99.90
7958;DHT22;4024;52.172;5.378;2023-05-16T16:07:14;16.90;99.90
7958;DHT22;4024;52.172;5.378;2023-05-16T16:09:40;16.80;99.90
7958;DHT22;4024;52.172;5.378;2023-05-16T16:12:06;16.80;99.90
7958;DHT22;4024;52.172;5.378;2023-05-16T16:14:31;16.70;99.90
7958;DHT22;4024;52.172;5.378;2023-05-16T16:16:57;16.60;99.90
7958;DHT22;4024;52.172;5.378;2023-05-16T16:19:22;16.60;99.90
7958;DHT22;4024;52.172;5.378;2023-05-16T16:21:48;16.50;99.90
7958;DHT22;4024;52.172;5.378;2023-05-16T16:24:14;16.50;99.90
7958;DHT22;4024;52.172;5.378;2023-05-16T16:26:41;16.40;99.90
7958;DHT22;4024;52.172;5.378;2023-05-16T16:29:06;16.30;99.90
7958;DHT22;4024;52.172;5.378;2023-05-16T16:31:32;16.30;99.90
7958;DHT22;4024;52.172;5.378;2023-05-16T16:33:57;16.30;99.90